Startpagina
METAR-TAF:

METAR-TAF

Vliegvelden :

Militair vliegvled

Solenzara, Frankrijk

breedte: 41-55N, lengte: 009-24E, hoogte: 8 m

Actueel weer

Dit bericht is 38 minuten geleden gemaakt, om 03:00 UTC
Wind 6 kt uit het westen, variërend tussen het westzuidwesten en het westnoordwesten
Temperatuur 18°C
Vochtigheid 64%
Druk 1021 hPa
Zicht 10 km of meer
Verspreide wolken op 4100 ft
Geheel bewolkt op 5200 ft

METAR: LFKS 210300Z AUTO 27006KT 240V300 9999 SCT041 OVC052 18/11 Q1021

Tijdstip: 05:38 (03:38 UTC)

Verwachting

Dit bericht is 19 uur en het 38 minuten geleden gemaakt, om 08:00 UTC
Verwachting geldig van 20 om 09 UTC tot 21 om 09 UTC
Wind 10 kt uit het noordoosten
Zicht 10 km of meer
Weinig wolken op 2000 ft
Wijzigt naar
van 20 om 16 UTC tot 20 om 18 UTC
Wind 5 kt uit het westen

TAF: LFKS 200800Z 2009/2109 04010KT 9999 FEW020 BECMG 2016/2018 27005KT

Waarnemingen en weersverwachtingen van meer dan 4000 vliegvelden (METAR en TAF).

De beschikbare stations zijn de gele en rode punten op de kaart.

Ga met uw muis naar het station om de naam te zien.

Klik dan om waarnemingen en weersverwachtingen te zien.

kaart wijzigen: klik op de groene knoppen met een zwart kruis om in te zoomen, op de groene knop met een streepje om uit te zoomen of op de groene pijlen voor aangrenzende kaarten.


METAR-TAF: